TimeEST,TemperatureF,Dew PointF,Humidity,Sea Level PressureIn,VisibilityMPH,Wind Direction,Wind SpeedMPH,Gust SpeedMPH,PrecipitationIn,Events,Conditions,WindDirDegrees,DateUTC
12:53 AM,55.0,51.1,86,29.96,9.0,NE,4.6,-,N/A,,Partly Cloudy,50,2012-11-05 05:53:00
1:53 AM,53.1,48.9,86,29.96,10.0,NE,4.6,-,N/A,,Clear,50,2012-11-05 06:53:00
2:53 AM,52.0,48.0,86,29.97,10.0,NE,4.6,-,N/A,,Mostly Cloudy,50,2012-11-05 07:53:00
3:53 AM,52.0,48.0,86,29.97,10.0,NE,6.9,-,N/A,,Overcast,40,2012-11-05 08:53:00
4:53 AM,50.0,45.0,83,29.99,10.0,NE,9.2,-,N/A,,Mostly Cloudy,40,2012-11-05 09:53:00
5:53 AM,48.9,45.0,86,30.02,10.0,NNE,9.2,-,N/A,,Scattered Clouds,30,2012-11-05 10:53:00
6:53 AM,48.9,43.0,80,30.04,10.0,NE,6.9,-,N/A,,Mostly Cloudy,40,2012-11-05 11:53:00
7:53 AM,51.1,43.0,74,30.06,10.0,NE,10.4,-,N/A,,Scattered Clouds,40,2012-11-05 12:53:00
8:53 AM,51.1,39.9,66,30.07,10.0,NE,11.5,19.6,N/A,,Scattered Clouds,40,2012-11-05 13:53:00
9:53 AM,55.0,39.0,55,30.07,10.0,NE,11.5,-,N/A,,Clear,50,2012-11-05 14:53:00
10:53 AM,57.9,37.9,47,30.07,10.0,ENE,6.9,-,N/A,,Clear,60,2012-11-05 15:53:00
11:53 AM,60.1,35.1,39,30.05,10.0,NE,9.2,-,N/A,,Clear,40,2012-11-05 16:53:00
12:53 PM,61.0,36.0,39,30.03,10.0,NE,9.2,-,N/A,,Clear,40,2012-11-05 17:53:00
1:53 PM,63.0,36.0,37,30.01,10.0,Variable,3.5,-,N/A,,Clear,0,2012-11-05 18:53:00
2:53 PM,64.0,36.0,35,30.00,10.0,NE,5.8,-,N/A,,Clear,50,2012-11-05 19:53:00
3:53 PM,63.0,37.0,38,30.01,10.0,Calm,Calm,-,N/A,,Clear,0,2012-11-05 20:53:00
4:53 PM,62.1,37.9,41,30.00,10.0,ENE,4.6,-,N/A,,Clear,60,2012-11-05 21:53:00
5:53 PM,53.1,42.1,66,30.01,10.0,Calm,Calm,-,N/A,,Clear,0,2012-11-05 22:53:00
6:53 PM,50.0,42.1,74,30.03,10.0,Calm,Calm,-,N/A,,Clear,0,2012-11-05 23:53:00
7:53 PM,48.0,42.1,80,30.03,10.0,Calm,Calm,-,N/A,,Clear,0,2012-11-06 00:53:00
8:53 PM,51.1,41.0,68,30.05,10.0,ENE,3.5,-,N/A,,Clear,70,2012-11-06 01:53:00
9:53 PM,50.0,39.9,68,30.05,10.0,Calm,Calm,-,N/A,,Clear,0,2012-11-06 02:53:00
10:53 PM,48.9,39.9,71,30.05,10.0,Calm,Calm,-,N/A,,Clear,0,2012-11-06 03:53:00
11:53 PM,48.0,39.9,74,30.04,10.0,ENE,3.5,-,N/A,,Clear,70,2012-11-06 04:53:00